createdAt,value
2023-05-21T00:02:00.139Z,1.60
2023-05-21T00:04:33.998Z,2.10
2023-05-21T00:07:03.985Z,2.40
2023-05-21T00:09:33.945Z,2.70
2023-05-21T00:12:04.011Z,3.40
2023-05-21T00:14:34.182Z,3.50
2023-05-21T00:17:04.141Z,3.70
2023-05-21T00:19:36.673Z,4.50
2023-05-21T00:22:06.635Z,4.40
2023-05-21T00:24:36.513Z,5.20
2023-05-21T00:27:06.530Z,5.40
2023-05-21T00:29:36.481Z,5.60
2023-05-21T00:32:07.799Z,5.80
2023-05-21T00:34:40.413Z,6.50
2023-05-21T00:37:10.378Z,6.20
2023-05-21T00:39:40.328Z,6.80
2023-05-21T00:42:10.560Z,7.40
2023-05-21T00:44:40.528Z,7.80
2023-05-21T00:47:10.450Z,8.00
2023-05-21T00:49:43.062Z,8.40
2023-05-21T00:52:13.100Z,8.80
2023-05-21T00:54:43.217Z,9.10
2023-05-21T00:57:13.498Z,9.30
2023-05-21T00:59:44.218Z,9.40
2023-05-21T01:02:14.485Z,9.50
2023-05-21T01:04:47.728Z,9.70
2023-05-21T01:07:18.759Z,10.30
2023-05-21T01:09:48.816Z,11.30
2023-05-21T01:12:20.770Z,11.70
2023-05-21T01:14:53.133Z,12.10
2023-05-21T01:17:24.587Z,12.30
2023-05-21T01:19:58.233Z,12.70
2023-05-21T01:22:28.877Z,12.80
2023-05-21T01:25:02.918Z,13.20
2023-05-21T01:27:32.937Z,13.80
2023-05-21T01:30:02.999Z,13.60
2023-05-21T01:32:37.923Z,14.60
2023-05-21T01:35:11.358Z,14.40
2023-05-21T01:37:47.617Z,14.80
2023-05-21T01:40:26.554Z,15.10
2023-05-21T01:42:56.729Z,15.10
2023-05-21T01:45:28.195Z,15.80
2023-05-21T01:47:59.047Z,15.90
2023-05-21T01:50:29.668Z,16.60
2023-05-21T01:53:01.277Z,16.90
2023-05-21T01:55:34.196Z,17.10
2023-05-21T01:58:04.434Z,17.50
2023-05-21T02:00:34.817Z,18.10
2023-05-21T02:03:04.825Z,18.20
2023-05-21T02:05:35.209Z,18.10
2023-05-21T02:08:05.595Z,17.90
2023-05-21T02:10:38.426Z,18.10
2023-05-21T02:13:08.510Z,18.40
2023-05-21T02:15:39.061Z,18.90
2023-05-21T02:18:09.713Z,19.50
2023-05-21T02:20:39.691Z,19.80
2023-05-21T02:23:09.645Z,19.50
2023-05-21T02:25:42.335Z,19.50
2023-05-21T02:28:12.866Z,19.50
2023-05-21T02:30:42.848Z,20.20
2023-05-21T02:33:14.503Z,20.20
2023-05-21T02:35:44.833Z,20.00
2023-05-21T02:38:14.697Z,20.40
2023-05-21T02:40:47.157Z,21.10
2023-05-21T02:43:17.080Z,20.90
2023-05-21T02:45:47.087Z,21.40
2023-05-21T02:48:17.100Z,21.80
2023-05-21T02:50:47.090Z,21.90
2023-05-21T02:53:16.992Z,22.30
2023-05-21T02:55:49.519Z,22.20
2023-05-21T02:58:19.473Z,21.90
2023-05-21T03:00:49.762Z,21.90
2023-05-21T03:03:19.819Z,22.20
2023-05-21T03:05:50.585Z,22.30
2023-05-21T03:08:20.549Z,22.90
2023-05-21T03:10:53.051Z,23.60
2023-05-21T03:13:23.388Z,23.80
2023-05-21T03:15:56.312Z,24.10
2023-05-21T03:18:26.253Z,23.70
2023-05-21T03:20:59.209Z,23.90
2023-05-21T03:23:29.712Z,24.40
2023-05-21T03:26:02.539Z,24.60
2023-05-21T03:28:32.438Z,24.70
2023-05-21T03:31:02.595Z,25.20
2023-05-21T03:33:32.513Z,25.20
2023-05-21T03:36:02.393Z,26.00
2023-05-21T03:38:32.244Z,26.00
2023-05-21T03:41:04.743Z,25.70
2023-05-21T03:43:34.670Z,25.80
2023-05-21T03:46:04.672Z,25.80
2023-05-21T03:48:34.669Z,26.20
2023-05-21T03:51:04.623Z,26.40
2023-05-21T03:53:37.021Z,26.40
2023-05-21T03:56:10.248Z,26.50
2023-05-21T03:58:40.153Z,26.70
2023-05-21T04:01:10.885Z,26.80
2023-05-21T04:03:41.286Z,27.10
2023-05-21T04:06:12.596Z,27.30
2023-05-21T04:08:42.775Z,27.90
2023-05-21T04:11:15.241Z,28.00
2023-05-21T04:13:45.231Z,27.90
2023-05-21T04:16:19.499Z,28.30
2023-05-21T04:18:49.615Z,27.50
2023-05-21T04:21:19.553Z,27.80
2023-05-21T04:23:49.466Z,27.80
2023-05-21T04:26:23.012Z,27.90
2023-05-21T04:29:03.160Z,27.70
2023-05-21T04:31:34.230Z,27.50
2023-05-21T04:34:04.319Z,26.40
2023-05-21T04:36:34.303Z,26.80
2023-05-21T04:39:05.768Z,26.00
2023-05-21T04:41:38.554Z,27.00
2023-05-21T04:44:09.786Z,27.20
2023-05-21T04:46:41.759Z,26.60
2023-05-21T04:49:13.137Z,26.30
2023-05-21T04:51:43.147Z,26.50
2023-05-21T04:54:13.032Z,26.10
2023-05-21T04:56:47.504Z,25.80
2023-05-21T04:59:18.737Z,25.20
2023-05-21T05:01:48.731Z,25.40
2023-05-21T05:04:18.634Z,24.70
2023-05-21T05:06:48.526Z,25.30
2023-05-21T05:09:18.467Z,24.00
2023-05-21T05:11:50.982Z,24.00
2023-05-21T05:14:21.014Z,23.70
2023-05-21T05:16:51.065Z,24.90
2023-05-21T05:19:21.119Z,24.60
2023-05-21T05:21:51.104Z,22.00
2023-05-21T05:24:21.022Z,22.00
2023-05-21T05:26:53.489Z,22.10
2023-05-21T05:29:23.400Z,19.50
2023-05-21T05:31:53.336Z,20.50
2023-05-21T05:34:23.218Z,20.00
2023-05-21T05:36:53.102Z,18.70
2023-05-21T05:39:23.004Z,16.60
2023-05-21T05:41:55.517Z,17.40
2023-05-21T05:44:25.417Z,18.50
2023-05-21T05:46:55.421Z,18.20
2023-05-21T05:49:25.308Z,18.50
2023-05-21T05:51:55.262Z,17.00
2023-05-21T05:54:25.162Z,16.40
2023-05-21T05:56:57.711Z,16.80
2023-05-21T05:59:27.653Z,17.60
2023-05-21T06:01:57.735Z,15.80
2023-05-21T06:04:30.199Z,16.30
2023-05-21T06:07:00.684Z,15.40
2023-05-21T06:09:30.649Z,14.20
2023-05-21T06:12:03.181Z,14.00
2023-05-21T06:14:33.179Z,13.60
2023-05-21T06:17:03.137Z,12.00
2023-05-21T06:19:33.113Z,11.90
2023-05-21T06:22:03.175Z,12.70
2023-05-21T06:24:33.242Z,9.80
2023-05-21T06:27:05.843Z,2.70
2023-05-21T06:29:35.734Z,1.40
2023-05-21T06:32:06.327Z,1.00
2023-05-21T06:34:36.234Z,1.10
2023-05-21T06:37:06.352Z,1.00
2023-05-21T06:39:36.265Z,1.00
2023-05-21T06:42:09.169Z,1.00
2023-05-21T06:44:39.064Z,1.20
2023-05-21T06:47:09.021Z,1.00
2023-05-21T06:49:38.941Z,1.00
2023-05-21T06:52:09.423Z,1.00
2023-05-21T06:54:39.325Z,1.00
2023-05-21T06:57:11.814Z,1.00
2023-05-21T06:59:41.730Z,1.00
2023-05-21T07:02:11.812Z,1.00
2023-05-21T07:04:41.681Z,1.00
2023-05-21T07:07:11.629Z,1.00
2023-05-21T07:09:41.521Z,1.00
2023-05-21T07:12:13.966Z,1.00
2023-05-21T07:14:43.852Z,1.00
2023-05-21T07:17:13.744Z,1.00
2023-05-21T07:19:43.638Z,1.00
2023-05-21T07:22:13.785Z,1.00
2023-05-21T07:24:43.641Z,1.00
2023-05-21T07:27:25.323Z,1.00
2023-05-21T07:29:55.994Z,1.00
2023-05-21T07:32:26.983Z,1.00
2023-05-21T07:34:56.891Z,1.00
2023-05-21T07:37:27.932Z,1.00
2023-05-21T07:39:58.767Z,1.00
2023-05-21T07:42:31.246Z,1.00
2023-05-21T07:45:01.169Z,1.00
2023-05-21T07:47:31.171Z,1.00
2023-05-21T07:50:01.533Z,1.00
2023-05-21T07:52:32.304Z,1.00
2023-05-21T07:55:02.241Z,1.00
2023-05-21T07:57:35.623Z,1.00
2023-05-21T08:00:08.140Z,1.00
2023-05-21T08:02:38.224Z,1.00
2023-05-21T08:05:09.105Z,1.00
2023-05-21T08:07:39.261Z,1.00
2023-05-21T08:10:10.627Z,1.00
2023-05-21T08:12:43.095Z,1.00
2023-05-21T08:15:13.936Z,1.00
2023-05-21T08:17:43.893Z,1.00
2023-05-21T08:20:15.304Z,1.00
2023-05-21T08:22:46.132Z,1.00
2023-05-21T08:25:16.100Z,1.00
2023-05-21T08:27:50.413Z,1.00
2023-05-21T08:30:22.332Z,1.00
2023-05-21T08:32:52.698Z,1.00
2023-05-21T08:35:22.730Z,1.00
2023-05-21T08:37:52.690Z,1.00
2023-05-21T08:40:22.643Z,1.00
2023-05-21T08:42:55.279Z,1.00
2023-05-21T08:45:26.409Z,1.00
2023-05-21T08:47:58.713Z,1.00
2023-05-21T08:50:29.961Z,1.00
2023-05-21T08:53:04.018Z,1.00
2023-05-21T08:55:42.752Z,1.00
2023-05-21T08:58:17.804Z,1.00
2023-05-21T09:00:47.727Z,1.00
2023-05-21T09:03:18.750Z,1.00
2023-05-21T09:05:48.855Z,1.00
2023-05-21T09:08:22.675Z,1.00
2023-05-21T09:10:53.751Z,1.00
2023-05-21T09:13:29.353Z,1.00
2023-05-21T09:15:59.500Z,1.00
2023-05-21T09:18:29.786Z,1.00
2023-05-21T09:20:59.699Z,1.00
2023-05-21T09:23:31.785Z,1.00
2023-05-21T09:26:03.731Z,1.00
2023-05-21T09:28:38.992Z,1.00
2023-05-21T09:31:08.998Z,1.00
2023-05-21T09:33:39.044Z,1.00
2023-05-21T09:36:11.750Z,1.00
2023-05-21T09:38:41.701Z,1.00
2023-05-21T09:41:11.587Z,1.00
2023-05-21T09:43:45.252Z,1.00
2023-05-21T09:46:15.435Z,1.00
2023-05-21T09:48:46.533Z,1.00
2023-05-21T09:51:18.121Z,1.00
2023-05-21T09:53:52.235Z,1.00
2023-05-21T09:56:27.147Z,1.00
2023-05-21T09:59:02.073Z,1.00
2023-05-21T10:01:34.711Z,1.00
2023-05-21T10:04:09.319Z,1.00
2023-05-21T10:06:44.901Z,1.00
2023-05-21T10:09:17.516Z,1.00
2023-05-21T10:11:48.101Z,1.00
2023-05-21T10:14:23.860Z,1.00
2023-05-21T10:16:57.006Z,1.00
2023-05-21T10:19:27.507Z,1.00
2023-05-21T10:21:57.759Z,1.00
2023-05-21T10:24:28.036Z,1.00
2023-05-21T10:26:58.627Z,1.00
2023-05-21T10:29:33.566Z,1.00
2023-05-21T10:32:06.034Z,1.00
2023-05-21T10:34:36.689Z,1.00
2023-05-21T10:37:10.694Z,1.00
2023-05-21T10:39:41.687Z,1.00
2023-05-21T10:42:40.597Z,1.00
2023-05-21T10:45:26.548Z,1.00
2023-05-21T10:48:26.454Z,1.00
2023-05-21T10:51:13.182Z,1.00
2023-05-21T10:54:06.334Z,1.00
2023-05-21T10:56:43.191Z,1.00
2023-05-21T10:59:22.420Z,1.00
2023-05-21T11:01:57.045Z,1.00
2023-05-21T11:04:29.909Z,1.00
2023-05-21T11:07:01.857Z,1.00
2023-05-21T11:09:31.933Z,1.00
2023-05-21T11:12:04.827Z,1.00
2023-05-21T11:14:39.417Z,1.00
2023-05-21T11:17:18.955Z,1.00
2023-05-21T11:19:51.581Z,1.00
2023-05-21T11:22:25.908Z,1.00
2023-05-21T11:24:56.526Z,1.00
2023-05-21T11:27:37.537Z,1.00
2023-05-21T11:30:09.567Z,1.00
2023-05-21T11:33:20.669Z,1.00
2023-05-21T11:36:01.700Z,1.00
2023-05-21T11:38:34.137Z,1.00
2023-05-21T11:41:06.372Z,1.00
2023-05-21T11:43:36.320Z,1.00
2023-05-21T11:46:06.865Z,1.00
2023-05-21T11:48:40.670Z,1.00
2023-05-21T11:51:10.988Z,1.00
2023-05-21T11:53:44.308Z,1.00
2023-05-21T11:56:16.062Z,1.00
2023-05-21T11:58:46.137Z,1.00
2023-05-21T12:01:25.067Z,1.00
2023-05-21T12:03:57.654Z,1.00
2023-05-21T12:06:31.538Z,1.00
2023-05-21T12:09:01.627Z,1.00
2023-05-21T12:11:31.693Z,1.00
2023-05-21T12:14:02.068Z,1.00
2023-05-21T12:16:32.805Z,1.00
2023-05-21T12:19:05.552Z,1.00
2023-05-21T12:21:36.251Z,1.00
2023-05-21T12:24:06.398Z,1.00
2023-05-21T12:26:36.576Z,1.00
2023-05-21T12:29:08.518Z,1.00
2023-05-21T12:31:50.933Z,1.00
2023-05-21T12:34:43.138Z,1.00
2023-05-21T12:37:14.962Z,1.00
2023-05-21T12:39:46.952Z,1.00
2023-05-21T12:42:17.317Z,1.00
2023-05-21T12:44:49.157Z,1.00
2023-05-21T12:47:19.307Z,1.00
2023-05-21T12:49:53.495Z,1.00
2023-05-21T12:52:25.771Z,1.00
2023-05-21T12:54:56.790Z,1.00
2023-05-21T12:57:28.439Z,1.00
2023-05-21T12:59:59.686Z,1.00
2023-05-21T13:02:30.857Z,1.00
2023-05-21T13:05:04.596Z,1.00
2023-05-21T13:07:37.846Z,1.00
2023-05-21T13:10:10.016Z,1.00
2023-05-21T13:12:42.138Z,1.00
2023-05-21T13:15:13.885Z,1.00
2023-05-21T13:17:43.985Z,1.00
2023-05-21T13:20:20.680Z,1.00
2023-05-21T13:22:52.313Z,1.00
2023-05-21T13:25:25.123Z,1.00
2023-05-21T13:27:55.956Z,1.00
2023-05-21T13:30:25.925Z,1.00
2023-05-21T13:32:56.062Z,1.00
2023-05-21T13:35:28.688Z,1.00
2023-05-21T13:37:58.618Z,1.00
2023-05-21T13:40:28.502Z,1.00
2023-05-21T13:42:58.396Z,1.00
2023-05-21T13:45:29.443Z,1.00
2023-05-21T13:47:59.840Z,1.00
2023-05-21T13:50:32.413Z,1.00
2023-05-21T13:53:02.338Z,1.00
2023-05-21T13:55:32.215Z,1.00
2023-05-21T13:58:02.109Z,1.00
2023-05-21T14:00:32.020Z,1.00
2023-05-21T14:03:02.017Z,1.00
2023-05-21T14:05:34.657Z,1.00
2023-05-21T14:08:04.878Z,1.00
2023-05-21T14:10:34.871Z,1.00
2023-05-21T14:13:18.262Z,1.00
2023-05-21T14:15:49.076Z,1.00
2023-05-21T14:18:19.173Z,1.00
2023-05-21T14:20:51.825Z,1.00
2023-05-21T14:23:21.743Z,1.00
2023-05-21T14:25:51.623Z,1.00
2023-05-21T14:28:21.867Z,1.00
2023-05-21T14:30:51.914Z,1.00
2023-05-21T14:33:21.949Z,1.00
2023-05-21T14:35:54.452Z,1.00
2023-05-21T14:38:24.301Z,1.00
2023-05-21T14:40:54.182Z,1.00
2023-05-21T14:43:24.427Z,1.00
2023-05-21T14:45:54.460Z,1.00
2023-05-21T14:48:24.992Z,1.00
2023-05-21T14:50:57.519Z,1.00
2023-05-21T14:53:27.359Z,1.00
2023-05-21T14:55:57.252Z,1.00
2023-05-21T14:58:27.170Z,1.00
2023-05-21T15:00:57.068Z,1.00
2023-05-21T15:03:27.313Z,1.00
2023-05-21T15:05:59.924Z,1.00
2023-05-21T15:08:30.096Z,1.00
2023-05-21T15:11:00.260Z,1.00
2023-05-21T15:13:30.110Z,1.00
2023-05-21T15:16:00.289Z,1.00
2023-05-21T15:18:30.266Z,1.00
2023-05-21T15:21:02.788Z,1.00
2023-05-21T15:23:32.668Z,1.00
2023-05-21T15:26:02.558Z,1.00
2023-05-21T15:28:32.548Z,1.00
2023-05-21T15:31:02.438Z,1.00
2023-05-21T15:33:32.396Z,1.00
2023-05-21T15:36:04.886Z,1.00
2023-05-21T15:38:34.894Z,1.00
2023-05-21T15:41:04.815Z,1.00
2023-05-21T15:43:35.051Z,1.00
2023-05-21T15:46:05.002Z,1.00
2023-05-21T15:48:34.858Z,1.00
2023-05-21T15:51:07.411Z,1.00
2023-05-21T15:53:37.330Z,1.00
2023-05-21T15:56:09.130Z,1.00
2023-05-21T15:58:39.052Z,1.00
2023-05-21T16:01:09.080Z,1.00
2023-05-21T16:03:39.893Z,1.00
2023-05-21T16:06:13.311Z,1.00
2023-05-21T16:08:43.235Z,1.00
2023-05-21T16:11:13.157Z,1.00
2023-05-21T16:13:43.568Z,1.00
2023-05-21T16:16:13.480Z,1.00
2023-05-21T16:18:43.369Z,1.00
2023-05-21T16:21:16.061Z,1.00
2023-05-21T16:23:45.908Z,1.00
2023-05-21T16:26:15.965Z,1.00
2023-05-21T16:28:46.124Z,1.00
2023-05-21T16:31:18.860Z,1.00
2023-05-21T16:33:48.848Z,1.00
2023-05-21T16:36:21.308Z,1.00
2023-05-21T16:38:51.184Z,1.00
2023-05-21T16:41:21.845Z,1.00
2023-05-21T16:43:52.601Z,1.00
2023-05-21T16:46:22.615Z,1.00
2023-05-21T16:48:52.534Z,1.00
2023-05-21T16:51:25.121Z,1.00
2023-05-21T16:53:55.047Z,1.00
2023-05-21T16:56:24.964Z,1.00
2023-05-21T16:58:54.846Z,1.00
2023-05-21T17:01:24.775Z,1.00
2023-05-21T17:03:56.218Z,1.00
2023-05-21T17:06:28.939Z,1.00
2023-05-21T17:08:59.181Z,1.00
2023-05-21T17:11:29.146Z,1.00
2023-05-21T17:13:58.992Z,1.00
2023-05-21T17:16:28.971Z,1.00
2023-05-21T17:18:59.018Z,1.00
2023-05-21T17:21:31.881Z,1.00
2023-05-21T17:24:01.825Z,1.00
2023-05-21T17:26:31.792Z,1.00
2023-05-21T17:29:01.704Z,1.00
2023-05-21T17:31:32.172Z,1.00
2023-05-21T17:34:02.201Z,1.00
2023-05-21T17:36:35.757Z,1.00
2023-05-21T17:39:06.379Z,1.00
2023-05-21T17:41:36.404Z,1.00
2023-05-21T17:44:06.407Z,1.00
2023-05-21T17:46:36.403Z,1.00
2023-05-21T17:49:07.573Z,1.00
2023-05-21T17:51:40.802Z,1.00
2023-05-21T17:54:10.825Z,1.00
2023-05-21T17:56:41.522Z,1.00
2023-05-21T17:59:12.613Z,1.00
2023-05-21T18:01:42.989Z,1.00
2023-05-21T18:04:13.732Z,1.00
2023-05-21T18:06:46.356Z,1.00
2023-05-21T18:09:16.784Z,1.00
2023-05-21T18:11:46.965Z,1.00
2023-05-21T18:14:16.884Z,1.00
2023-05-21T18:16:46.851Z,1.00
2023-05-21T18:19:16.777Z,1.00
2023-05-21T18:21:50.624Z,1.00
2023-05-21T18:24:20.527Z,1.00
2023-05-21T18:26:52.004Z,1.00
2023-05-21T18:29:22.088Z,1.00
2023-05-21T18:31:52.118Z,1.00
2023-05-21T18:34:22.741Z,1.00
2023-05-21T18:36:55.221Z,1.00
2023-05-21T18:39:25.133Z,1.00
2023-05-21T18:42:11.391Z,1.00
2023-05-21T18:44:45.931Z,1.00
2023-05-21T18:47:16.340Z,1.00
2023-05-21T18:49:46.305Z,1.00
2023-05-21T18:52:18.902Z,1.00
2023-05-21T18:54:48.853Z,1.00
2023-05-21T18:57:18.712Z,1.00
2023-05-21T18:59:48.569Z,1.00
2023-05-21T19:02:18.546Z,1.00
2023-05-21T19:04:48.875Z,1.00
2023-05-21T19:07:21.394Z,1.00
2023-05-21T19:09:52.888Z,1.00
2023-05-21T19:12:22.838Z,1.00
2023-05-21T19:14:52.770Z,1.00
2023-05-21T19:17:22.739Z,1.00
2023-05-21T19:19:56.054Z,1.00
2023-05-21T19:22:29.562Z,1.00
2023-05-21T19:25:00.803Z,1.00
2023-05-21T19:27:31.103Z,1.00
2023-05-21T19:30:01.033Z,1.00
2023-05-21T19:32:31.406Z,1.00
2023-05-21T19:35:02.060Z,1.00
2023-05-21T19:37:34.726Z,1.00
2023-05-21T19:40:06.155Z,1.00
2023-05-21T19:42:36.129Z,1.00
2023-05-21T19:45:09.511Z,1.00
2023-05-21T19:47:41.157Z,1.00
2023-05-21T19:50:13.450Z,1.00
2023-05-21T19:52:45.924Z,1.00
2023-05-21T19:55:20.537Z,1.00
2023-05-21T19:57:50.610Z,1.00
2023-05-21T20:00:21.185Z,1.00
2023-05-21T20:02:53.011Z,1.00
2023-05-21T20:05:23.185Z,1.00
2023-05-21T20:07:56.082Z,1.00
2023-05-21T20:10:28.205Z,1.00
2023-05-21T20:12:58.145Z,1.00
2023-05-21T20:15:28.083Z,1.00
2023-05-21T20:17:59.357Z,1.00
2023-05-21T20:20:29.729Z,1.00
2023-05-21T20:23:03.354Z,1.00
2023-05-21T20:25:33.410Z,1.00
2023-05-21T20:28:04.088Z,1.00
2023-05-21T20:30:36.245Z,1.00
2023-05-21T20:33:06.657Z,1.00
2023-05-21T20:35:36.599Z,1.00
2023-05-21T20:38:09.076Z,1.00
2023-05-21T20:40:39.143Z,1.00
2023-05-21T20:43:12.136Z,1.00
2023-05-21T20:45:43.745Z,1.00
2023-05-21T20:48:14.366Z,1.00
2023-05-21T20:50:44.425Z,1.00
2023-05-21T20:53:16.935Z,1.00
2023-05-21T20:55:47.101Z,1.00
2023-05-21T20:58:16.998Z,1.00
2023-05-21T21:00:47.048Z,1.00
2023-05-21T21:03:17.935Z,1.00
2023-05-21T21:05:48.100Z,1.00
2023-05-21T21:08:20.644Z,1.00
2023-05-21T21:10:50.775Z,1.00
2023-05-21T21:13:20.641Z,1.00
2023-05-21T21:15:50.813Z,1.00
2023-05-21T21:18:20.746Z,1.00
2023-05-21T21:20:50.738Z,1.00
2023-05-21T21:23:23.329Z,1.00
2023-05-21T21:25:53.289Z,1.00
2023-05-21T21:28:23.223Z,1.00
2023-05-21T21:30:53.183Z,1.00
2023-05-21T21:33:24.485Z,1.00
2023-05-21T21:35:54.480Z,1.00
2023-05-21T21:38:27.066Z,1.00
2023-05-21T21:40:57.194Z,1.00
2023-05-21T21:43:27.076Z,1.00
2023-05-21T21:45:56.988Z,1.00
2023-05-21T21:48:26.928Z,1.00
2023-05-21T21:50:57.008Z,1.00
2023-05-21T21:53:29.633Z,1.00
2023-05-21T21:55:59.574Z,1.00
2023-05-21T21:58:29.517Z,1.00
2023-05-21T22:00:59.418Z,1.00
2023-05-21T22:03:29.310Z,1.00
2023-05-21T22:05:59.316Z,1.00
2023-05-21T22:08:31.852Z,1.00
2023-05-21T22:11:02.048Z,1.00
2023-05-21T22:13:31.918Z,1.00
2023-05-21T22:16:02.117Z,1.00
2023-05-21T22:18:40.961Z,1.00
2023-05-21T22:21:14.438Z,1.00
2023-05-21T22:23:47.289Z,1.00
2023-05-21T22:26:17.215Z,1.00
2023-05-21T22:28:47.147Z,1.00
2023-05-21T22:31:17.541Z,1.00
2023-05-21T22:33:47.523Z,1.00
2023-05-21T22:36:17.530Z,1.00
2023-05-21T22:38:50.081Z,1.00
2023-05-21T22:41:20.910Z,1.00
2023-05-21T22:43:50.912Z,1.00
2023-05-21T22:46:21.045Z,1.00
2023-05-21T22:48:51.150Z,1.00
2023-05-21T22:51:21.113Z,1.00
2023-05-21T22:53:53.618Z,1.00
2023-05-21T22:56:23.753Z,1.00
2023-05-21T22:58:53.629Z,1.00
2023-05-21T23:01:23.888Z,1.00
2023-05-21T23:03:54.250Z,1.00
2023-05-21T23:06:24.232Z,1.00
2023-05-21T23:08:56.862Z,1.00
2023-05-21T23:11:26.931Z,1.00
2023-05-21T23:13:56.763Z,1.00
2023-05-21T23:16:26.722Z,1.00
2023-05-21T23:18:57.244Z,1.00
2023-05-21T23:21:27.536Z,1.00
2023-05-21T23:24:00.087Z,1.00
2023-05-21T23:26:30.037Z,1.00
2023-05-21T23:29:00.125Z,1.00
2023-05-21T23:31:30.641Z,1.00
2023-05-21T23:34:01.719Z,1.00
2023-05-21T23:36:31.673Z,1.00
2023-05-21T23:39:04.216Z,1.00
2023-05-21T23:41:34.400Z,1.00
2023-05-21T23:44:04.345Z,1.00
2023-05-21T23:46:34.416Z,2.30
2023-05-21T23:49:04.322Z,3.30
2023-05-21T23:51:34.489Z,3.90
2023-05-21T23:54:08.201Z,4.80
2023-05-21T23:56:38.288Z,7.40
2023-05-21T23:59:08.295Z,7.80
